sensor_id;sensor_type;location;lat;lon;timestamp;P1;durP1;ratioP1;P2;durP2;ratioP2
19002;SDS011;9634;51.040;13.794;2022-07-29T00:03:43;3.07;;;1.73;;
19002;SDS011;9634;51.040;13.794;2022-07-29T00:08:45;5.40;;;1.77;;
19002;SDS011;9634;51.040;13.794;2022-07-29T00:13:49;5.40;;;1.83;;
19002;SDS011;9634;51.040;13.794;2022-07-29T00:18:52;5.87;;;2.40;;
19002;SDS011;9634;51.040;13.794;2022-07-29T00:23:54;10.10;;;1.80;;
19002;SDS011;9634;51.040;13.794;2022-07-29T00:28:59;8.80;;;2.80;;
19002;SDS011;9634;51.040;13.794;2022-07-29T00:34:01;9.60;;;2.27;;
19002;SDS011;9634;51.040;13.794;2022-07-29T00:39:04;7.87;;;2.60;;
19002;SDS011;9634;51.040;13.794;2022-07-29T00:44:08;6.00;;;2.07;;
19002;SDS011;9634;51.040;13.794;2022-07-29T00:49:10;7.87;;;2.47;;
19002;SDS011;9634;51.040;13.794;2022-07-29T00:54:12;7.63;;;2.23;;
19002;SDS011;9634;51.040;13.794;2022-07-29T00:59:16;7.00;;;2.90;;
19002;SDS011;9634;51.040;13.794;2022-07-29T01:04:19;13.80;;;2.97;;
19002;SDS011;9634;51.040;13.794;2022-07-29T01:09:21;9.53;;;4.67;;
19002;SDS011;9634;51.040;13.794;2022-07-29T01:14:26;14.33;;;5.30;;
19002;SDS011;9634;51.040;13.794;2022-07-29T01:19:37;16.57;;;6.20;;
19002;SDS011;9634;51.040;13.794;2022-07-29T01:24:55;17.03;;;6.60;;
19002;SDS011;9634;51.040;13.794;2022-07-29T01:30:18;18.77;;;7.57;;
19002;SDS011;9634;51.040;13.794;2022-07-29T01:35:25;22.83;;;9.97;;
19002;SDS011;9634;51.040;13.794;2022-07-29T01:40:34;21.97;;;7.37;;
19002;SDS011;9634;51.040;13.794;2022-07-29T01:45:45;21.87;;;8.60;;
19002;SDS011;9634;51.040;13.794;2022-07-29T01:50:53;17.63;;;8.70;;
19002;SDS011;9634;51.040;13.794;2022-07-29T01:56:02;31.27;;;13.77;;
19002;SDS011;9634;51.040;13.794;2022-07-29T02:01:08;25.27;;;12.57;;
19002;SDS011;9634;51.040;13.794;2022-07-29T02:06:11;32.67;;;13.77;;
19002;SDS011;9634;51.040;13.794;2022-07-29T02:11:18;22.50;;;11.97;;
19002;SDS011;9634;51.040;13.794;2022-07-29T02:16:22;31.33;;;14.23;;
19002;SDS011;9634;51.040;13.794;2022-07-29T02:21:25;25.70;;;13.87;;
19002;SDS011;9634;51.040;13.794;2022-07-29T02:26:29;24.87;;;14.57;;
19002;SDS011;9634;51.040;13.794;2022-07-29T02:31:35;26.03;;;14.53;;
19002;SDS011;9634;51.040;13.794;2022-07-29T02:36:39;34.67;;;15.33;;
19002;SDS011;9634;51.040;13.794;2022-07-29T02:41:43;28.50;;;15.10;;
19002;SDS011;9634;51.040;13.794;2022-07-29T02:46:49;29.33;;;15.70;;
19002;SDS011;9634;51.040;13.794;2022-07-29T02:51:54;32.37;;;17.43;;
19002;SDS011;9634;51.040;13.794;2022-07-29T02:57:04;34.40;;;19.50;;
19002;SDS011;9634;51.040;13.794;2022-07-29T03:02:13;37.10;;;18.63;;
19002;SDS011;9634;51.040;13.794;2022-07-29T03:07:18;39.77;;;21.47;;
19002;SDS011;9634;51.040;13.794;2022-07-29T03:12:22;37.50;;;19.50;;
19002;SDS011;9634;51.040;13.794;2022-07-29T03:17:27;37.70;;;20.23;;
19002;SDS011;9634;51.040;13.794;2022-07-29T03:22:32;47.60;;;24.63;;
19002;SDS011;9634;51.040;13.794;2022-07-29T03:27:34;49.70;;;26.63;;
19002;SDS011;9634;51.040;13.794;2022-07-29T03:32:38;51.50;;;28.27;;
19002;SDS011;9634;51.040;13.794;2022-07-29T03:37:41;47.27;;;27.13;;
19002;SDS011;9634;51.040;13.794;2022-07-29T03:42:44;51.20;;;29.00;;
19002;SDS011;9634;51.040;13.794;2022-07-29T03:47:50;43.80;;;25.57;;
19002;SDS011;9634;51.040;13.794;2022-07-29T03:52:56;46.40;;;24.70;;
19002;SDS011;9634;51.040;13.794;2022-07-29T03:57:59;45.80;;;24.80;;
19002;SDS011;9634;51.040;13.794;2022-07-29T04:03:04;49.00;;;25.33;;
19002;SDS011;9634;51.040;13.794;2022-07-29T04:08:07;44.27;;;24.23;;
19002;SDS011;9634;51.040;13.794;2022-07-29T04:13:10;40.07;;;22.63;;
19002;SDS011;9634;51.040;13.794;2022-07-29T04:18:13;39.67;;;22.80;;
19002;SDS011;9634;51.040;13.794;2022-07-29T04:23:16;45.30;;;23.17;;
19002;SDS011;9634;51.040;13.794;2022-07-29T04:28:19;38.53;;;21.47;;
19002;SDS011;9634;51.040;13.794;2022-07-29T04:33:22;37.57;;;20.17;;
19002;SDS011;9634;51.040;13.794;2022-07-29T04:38:25;29.93;;;19.00;;
19002;SDS011;9634;51.040;13.794;2022-07-29T04:43:27;36.97;;;19.07;;
19002;SDS011;9634;51.040;13.794;2022-07-29T04:48:31;36.50;;;18.70;;
19002;SDS011;9634;51.040;13.794;2022-07-29T04:53:33;40.07;;;20.87;;
19002;SDS011;9634;51.040;13.794;2022-07-29T04:58:36;40.00;;;21.37;;
19002;SDS011;9634;51.040;13.794;2022-07-29T05:03:40;38.50;;;21.63;;
19002;SDS011;9634;51.040;13.794;2022-07-29T05:08:42;43.10;;;22.57;;
19002;SDS011;9634;51.040;13.794;2022-07-29T05:13:45;47.40;;;23.23;;
19002;SDS011;9634;51.040;13.794;2022-07-29T05:18:49;52.67;;;26.37;;
19002;SDS011;9634;51.040;13.794;2022-07-29T05:23:51;64.37;;;34.27;;
19002;SDS011;9634;51.040;13.794;2022-07-29T05:28:54;51.13;;;29.53;;
19002;SDS011;9634;51.040;13.794;2022-07-29T05:33:58;46.73;;;25.10;;
19002;SDS011;9634;51.040;13.794;2022-07-29T05:39:01;47.20;;;24.40;;
19002;SDS011;9634;51.040;13.794;2022-07-29T05:44:03;42.67;;;23.47;;
19002;SDS011;9634;51.040;13.794;2022-07-29T05:49:07;41.90;;;22.47;;
19002;SDS011;9634;51.040;13.794;2022-07-29T05:54:10;41.37;;;20.83;;
19002;SDS011;9634;51.040;13.794;2022-07-29T05:59:12;32.50;;;18.10;;
19002;SDS011;9634;51.040;13.794;2022-07-29T06:04:15;34.90;;;18.50;;
19002;SDS011;9634;51.040;13.794;2022-07-29T06:09:18;36.00;;;18.20;;
19002;SDS011;9634;51.040;13.794;2022-07-29T06:14:24;43.67;;;18.50;;
19002;SDS011;9634;51.040;13.794;2022-07-29T06:19:29;46.97;;;22.47;;
19002;SDS011;9634;51.040;13.794;2022-07-29T06:24:32;43.80;;;23.73;;
19002;SDS011;9634;51.040;13.794;2022-07-29T06:29:34;45.20;;;24.00;;
19002;SDS011;9634;51.040;13.794;2022-07-29T06:34:38;43.83;;;21.73;;
19002;SDS011;9634;51.040;13.794;2022-07-29T06:39:41;39.57;;;21.47;;
19002;SDS011;9634;51.040;13.794;2022-07-29T06:44:44;40.63;;;21.87;;
19002;SDS011;9634;51.040;13.794;2022-07-29T06:49:47;35.57;;;21.00;;
19002;SDS011;9634;51.040;13.794;2022-07-29T06:54:50;36.70;;;20.23;;
19002;SDS011;9634;51.040;13.794;2022-07-29T06:59:52;31.97;;;15.90;;
19002;SDS011;9634;51.040;13.794;2022-07-29T07:04:56;39.13;;;17.47;;
19002;SDS011;9634;51.040;13.794;2022-07-29T07:09:59;34.90;;;18.47;;
19002;SDS011;9634;51.040;13.794;2022-07-29T07:15:02;32.67;;;17.93;;
19002;SDS011;9634;51.040;13.794;2022-07-29T07:20:06;36.37;;;19.30;;
19002;SDS011;9634;51.040;13.794;2022-07-29T07:25:09;33.20;;;14.87;;
19002;SDS011;9634;51.040;13.794;2022-07-29T07:30:12;33.03;;;16.43;;
19002;SDS011;9634;51.040;13.794;2022-07-29T07:35:16;34.80;;;16.50;;
19002;SDS011;9634;51.040;13.794;2022-07-29T07:40:18;36.07;;;16.30;;
19002;SDS011;9634;51.040;13.794;2022-07-29T07:45:20;38.87;;;16.50;;
19002;SDS011;9634;51.040;13.794;2022-07-29T07:50:24;31.13;;;17.03;;
19002;SDS011;9634;51.040;13.794;2022-07-29T07:55:27;27.87;;;15.23;;
19002;SDS011;9634;51.040;13.794;2022-07-29T08:00:30;32.40;;;14.10;;
19002;SDS011;9634;51.040;13.794;2022-07-29T08:05:34;28.13;;;13.83;;
19002;SDS011;9634;51.040;13.794;2022-07-29T08:10:36;28.57;;;13.20;;
19002;SDS011;9634;51.040;13.794;2022-07-29T08:15:56;23.80;;;13.30;;
19002;SDS011;9634;51.040;13.794;2022-07-29T08:21:03;29.10;;;12.93;;
19002;SDS011;9634;51.040;13.794;2022-07-29T08:26:06;24.47;;;12.40;;
19002;SDS011;9634;51.040;13.794;2022-07-29T08:31:10;22.30;;;11.15;;
19002;SDS011;9634;51.040;13.794;2022-07-29T08:36:15;28.90;;;11.40;;
19002;SDS011;9634;51.040;13.794;2022-07-29T08:41:18;31.40;;;11.02;;
19002;SDS011;9634;51.040;13.794;2022-07-29T08:46:21;21.10;;;10.50;;
19002;SDS011;9634;51.040;13.794;2022-07-29T08:51:26;30.67;;;11.13;;
19002;SDS011;9634;51.040;13.794;2022-07-29T08:56:29;21.88;;;10.30;;
19002;SDS011;9634;51.040;13.794;2022-07-29T09:01:32;20.13;;;9.65;;
19002;SDS011;9634;51.040;13.794;2022-07-29T09:06:39;18.65;;;10.25;;
19002;SDS011;9634;51.040;13.794;2022-07-29T09:11:45;22.17;;;10.40;;
19002;SDS011;9634;51.040;13.794;2022-07-29T09:16:49;20.40;;;9.93;;
19002;SDS011;9634;51.040;13.794;2022-07-29T09:21:54;17.92;;;9.13;;
19002;SDS011;9634;51.040;13.794;2022-07-29T09:27:01;16.92;;;9.93;;
19002;SDS011;9634;51.040;13.794;2022-07-29T09:32:05;19.85;;;10.65;;
19002;SDS011;9634;51.040;13.794;2022-07-29T09:37:11;18.92;;;10.45;;
19002;SDS011;9634;51.040;13.794;2022-07-29T09:42:28;21.33;;;10.70;;
19002;SDS011;9634;51.040;13.794;2022-07-29T09:47:40;21.60;;;10.88;;
19002;SDS011;9634;51.040;13.794;2022-07-29T09:52:47;21.98;;;10.90;;
19002;SDS011;9634;51.040;13.794;2022-07-29T09:57:52;18.95;;;10.75;;
19002;SDS011;9634;51.040;13.794;2022-07-29T10:02:55;28.15;;;11.50;;
19002;SDS011;9634;51.040;13.794;2022-07-29T10:08:04;21.33;;;11.68;;
19002;SDS011;9634;51.040;13.794;2022-07-29T10:13:08;15.85;;;8.15;;
19002;SDS011;9634;51.040;13.794;2022-07-29T10:18:12;10.93;;;6.72;;
19002;SDS011;9634;51.040;13.794;2022-07-29T10:23:18;14.10;;;6.95;;
19002;SDS011;9634;51.040;13.794;2022-07-29T10:28:21;9.82;;;5.80;;
19002;SDS011;9634;51.040;13.794;2022-07-29T10:33:29;12.90;;;5.40;;
19002;SDS011;9634;51.040;13.794;2022-07-29T10:38:45;6.50;;;2.47;;
19002;SDS011;9634;51.040;13.794;2022-07-29T10:43:54;6.28;;;2.20;;
19002;SDS011;9634;51.040;13.794;2022-07-29T10:49:07;4.13;;;1.83;;
19002;SDS011;9634;51.040;13.794;2022-07-29T10:54:12;3.50;;;1.80;;
19002;SDS011;9634;51.040;13.794;2022-07-29T10:59:25;5.22;;;1.70;;
19002;SDS011;9634;51.040;13.794;2022-07-29T11:10:21;3.53;;;1.88;;
19002;SDS011;9634;51.040;13.794;2022-07-29T11:15:24;5.38;;;1.98;;
19002;SDS011;9634;51.040;13.794;2022-07-29T11:20:33;4.65;;;2.05;;
19002;SDS011;9634;51.040;13.794;2022-07-29T11:25:42;4.78;;;1.52;;
19002;SDS011;9634;51.040;13.794;2022-07-29T11:30:47;2.65;;;1.77;;
19002;SDS011;9634;51.040;13.794;2022-07-29T11:36:05;3.20;;;2.00;;
19002;SDS011;9634;51.040;13.794;2022-07-29T11:41:20;4.40;;;2.40;;
19002;SDS011;9634;51.040;13.794;2022-07-29T11:51:49;8.73;;;2.45;;
19002;SDS011;9634;51.040;13.794;2022-07-29T11:56:54;3.38;;;2.15;;
19002;SDS011;9634;51.040;13.794;2022-07-29T12:01:58;2.47;;;2.00;;
19002;SDS011;9634;51.040;13.794;2022-07-29T12:07:02;3.95;;;2.35;;
19002;SDS011;9634;51.040;13.794;2022-07-29T12:12:08;4.97;;;2.20;;
19002;SDS011;9634;51.040;13.794;2022-07-29T12:17:24;4.75;;;2.60;;
19002;SDS011;9634;51.040;13.794;2022-07-29T12:22:28;4.20;;;2.53;;
19002;SDS011;9634;51.040;13.794;2022-07-29T12:27:33;4.68;;;2.50;;
19002;SDS011;9634;51.040;13.794;2022-07-29T12:32:37;3.15;;;2.10;;
19002;SDS011;9634;51.040;13.794;2022-07-29T12:37:40;5.78;;;1.85;;
19002;SDS011;9634;51.040;13.794;2022-07-29T12:48:10;3.70;;;2.20;;
19002;SDS011;9634;51.040;13.794;2022-07-29T12:53:13;2.90;;;2.20;;
19002;SDS011;9634;51.040;13.794;2022-07-29T12:58:26;4.70;;;1.92;;
19002;SDS011;9634;51.040;13.794;2022-07-29T13:03:46;3.38;;;2.20;;
19002;SDS011;9634;51.040;13.794;2022-07-29T13:08:58;5.15;;;2.15;;
19002;SDS011;9634;51.040;13.794;2022-07-29T13:14:03;5.00;;;2.55;;
19002;SDS011;9634;51.040;13.794;2022-07-29T13:19:06;4.82;;;2.65;;
19002;SDS011;9634;51.040;13.794;2022-07-29T13:24:10;3.95;;;2.00;;
19002;SDS011;9634;51.040;13.794;2022-07-29T13:29:14;2.55;;;2.08;;
19002;SDS011;9634;51.040;13.794;2022-07-29T13:34:17;3.20;;;2.00;;
19002;SDS011;9634;51.040;13.794;2022-07-29T13:39:20;4.28;;;2.50;;
19002;SDS011;9634;51.040;13.794;2022-07-29T13:44:24;3.92;;;2.28;;
19002;SDS011;9634;51.040;13.794;2022-07-29T13:49:27;6.15;;;2.13;;
19002;SDS011;9634;51.040;13.794;2022-07-29T13:54:29;5.47;;;2.17;;
19002;SDS011;9634;51.040;13.794;2022-07-29T13:59:34;3.60;;;2.28;;
19002;SDS011;9634;51.040;13.794;2022-07-29T14:04:37;6.03;;;2.65;;
19002;SDS011;9634;51.040;13.794;2022-07-29T14:09:40;6.40;;;2.95;;
19002;SDS011;9634;51.040;13.794;2022-07-29T14:14:44;2.90;;;2.30;;
19002;SDS011;9634;51.040;13.794;2022-07-29T14:19:46;3.42;;;2.13;;
19002;SDS011;9634;51.040;13.794;2022-07-29T14:24:48;5.00;;;2.28;;
19002;SDS011;9634;51.040;13.794;2022-07-29T14:29:52;3.63;;;2.53;;
19002;SDS011;9634;51.040;13.794;2022-07-29T14:34:55;3.40;;;2.50;;
19002;SDS011;9634;51.040;13.794;2022-07-29T14:39:57;5.60;;;2.10;;
19002;SDS011;9634;51.040;13.794;2022-07-29T14:45:05;5.75;;;2.38;;
19002;SDS011;9634;51.040;13.794;2022-07-29T14:50:09;6.72;;;2.50;;
19002;SDS011;9634;51.040;13.794;2022-07-29T14:55:12;4.22;;;2.70;;
19002;SDS011;9634;51.040;13.794;2022-07-29T15:00:16;4.07;;;2.50;;
19002;SDS011;9634;51.040;13.794;2022-07-29T15:05:21;7.15;;;2.53;;
19002;SDS011;9634;51.040;13.794;2022-07-29T15:10:23;7.28;;;4.00;;
19002;SDS011;9634;51.040;13.794;2022-07-29T15:15:27;7.90;;;3.70;;
19002;SDS011;9634;51.040;13.794;2022-07-29T15:20:30;7.60;;;4.65;;
19002;SDS011;9634;51.040;13.794;2022-07-29T15:25:32;7.28;;;4.60;;
19002;SDS011;9634;51.040;13.794;2022-07-29T15:30:37;5.07;;;3.58;;
19002;SDS011;9634;51.040;13.794;2022-07-29T15:35:42;13.85;;;7.25;;
19002;SDS011;9634;51.040;13.794;2022-07-29T15:40:44;12.63;;;7.05;;
19002;SDS011;9634;51.040;13.794;2022-07-29T15:45:48;11.32;;;5.85;;
19002;SDS011;9634;51.040;13.794;2022-07-29T15:51:05;7.32;;;4.82;;
19002;SDS011;9634;51.040;13.794;2022-07-29T15:56:07;11.32;;;6.93;;
19002;SDS011;9634;51.040;13.794;2022-07-29T16:01:10;13.50;;;7.95;;
19002;SDS011;9634;51.040;13.794;2022-07-29T16:06:13;11.55;;;8.27;;
19002;SDS011;9634;51.040;13.794;2022-07-29T16:11:16;14.98;;;8.57;;
19002;SDS011;9634;51.040;13.794;2022-07-29T16:16:20;15.48;;;8.05;;
19002;SDS011;9634;51.040;13.794;2022-07-29T16:21:22;13.30;;;9.18;;
19002;SDS011;9634;51.040;13.794;2022-07-29T16:26:26;14.23;;;8.13;;
19002;SDS011;9634;51.040;13.794;2022-07-29T16:31:30;14.70;;;8.20;;
19002;SDS011;9634;51.040;13.794;2022-07-29T16:36:33;13.13;;;7.45;;
19002;SDS011;9634;51.040;13.794;2022-07-29T16:41:35;9.18;;;5.90;;
19002;SDS011;9634;51.040;13.794;2022-07-29T16:46:43;11.02;;;6.20;;
19002;SDS011;9634;51.040;13.794;2022-07-29T16:51:47;8.85;;;5.28;;
19002;SDS011;9634;51.040;13.794;2022-07-29T16:56:50;9.32;;;5.05;;
19002;SDS011;9634;51.040;13.794;2022-07-29T17:01:54;7.45;;;4.50;;
19002;SDS011;9634;51.040;13.794;2022-07-29T17:06:58;8.88;;;4.32;;
19002;SDS011;9634;51.040;13.794;2022-07-29T17:12:01;13.50;;;6.65;;
19002;SDS011;9634;51.040;13.794;2022-07-29T17:17:05;11.20;;;5.65;;
19002;SDS011;9634;51.040;13.794;2022-07-29T17:22:07;8.68;;;5.75;;
19002;SDS011;9634;51.040;13.794;2022-07-29T17:27:10;7.50;;;5.18;;
19002;SDS011;9634;51.040;13.794;2022-07-29T17:32:14;7.65;;;3.65;;
19002;SDS011;9634;51.040;13.794;2022-07-29T17:37:17;8.18;;;4.15;;
19002;SDS011;9634;51.040;13.794;2022-07-29T17:42:19;7.68;;;3.15;;
19002;SDS011;9634;51.040;13.794;2022-07-29T17:47:23;7.18;;;3.80;;
19002;SDS011;9634;51.040;13.794;2022-07-29T17:52:26;11.48;;;3.90;;
19002;SDS011;9634;51.040;13.794;2022-07-29T17:57:29;6.80;;;4.88;;
19002;SDS011;9634;51.040;13.794;2022-07-29T18:02:34;15.27;;;3.93;;
19002;SDS011;9634;51.040;13.794;2022-07-29T18:07:37;8.30;;;3.27;;
19002;SDS011;9634;51.040;13.794;2022-07-29T18:12:40;6.10;;;3.93;;
19002;SDS011;9634;51.040;13.794;2022-07-29T18:17:44;17.60;;;7.83;;
19002;SDS011;9634;51.040;13.794;2022-07-29T18:22:47;5.97;;;3.90;;
19002;SDS011;9634;51.040;13.794;2022-07-29T18:27:50;10.50;;;4.10;;
19002;SDS011;9634;51.040;13.794;2022-07-29T18:32:54;10.83;;;3.90;;
19002;SDS011;9634;51.040;13.794;2022-07-29T18:37:56;10.00;;;3.97;;
19002;SDS011;9634;51.040;13.794;2022-07-29T18:42:59;10.53;;;3.40;;
19002;SDS011;9634;51.040;13.794;2022-07-29T18:48:03;11.73;;;3.83;;
19002;SDS011;9634;51.040;13.794;2022-07-29T18:53:07;8.57;;;3.40;;
19002;SDS011;9634;51.040;13.794;2022-07-29T18:58:10;9.60;;;3.63;;
19002;SDS011;9634;51.040;13.794;2022-07-29T19:03:14;6.07;;;3.17;;
19002;SDS011;9634;51.040;13.794;2022-07-29T19:08:17;12.80;;;4.77;;
19002;SDS011;9634;51.040;13.794;2022-07-29T19:13:20;9.07;;;3.80;;
19002;SDS011;9634;51.040;13.794;2022-07-29T19:18:23;10.93;;;3.83;;
19002;SDS011;9634;51.040;13.794;2022-07-29T19:23:26;8.07;;;3.70;;
19002;SDS011;9634;51.040;13.794;2022-07-29T19:28:29;9.83;;;3.30;;
19002;SDS011;9634;51.040;13.794;2022-07-29T19:33:33;4.70;;;3.40;;
19002;SDS011;9634;51.040;13.794;2022-07-29T19:38:35;7.83;;;3.17;;
19002;SDS011;9634;51.040;13.794;2022-07-29T19:43:39;10.80;;;3.67;;
19002;SDS011;9634;51.040;13.794;2022-07-29T19:48:43;9.87;;;3.40;;
19002;SDS011;9634;51.040;13.794;2022-07-29T19:53:46;8.87;;;3.20;;
19002;SDS011;9634;51.040;13.794;2022-07-29T19:58:49;11.13;;;2.97;;
19002;SDS011;9634;51.040;13.794;2022-07-29T20:03:53;6.20;;;3.07;;
19002;SDS011;9634;51.040;13.794;2022-07-29T20:08:55;9.73;;;3.00;;
19002;SDS011;9634;51.040;13.794;2022-07-29T20:13:58;9.40;;;3.57;;
19002;SDS011;9634;51.040;13.794;2022-07-29T20:19:03;9.80;;;2.93;;
19002;SDS011;9634;51.040;13.794;2022-07-29T20:24:06;10.73;;;3.17;;
19002;SDS011;9634;51.040;13.794;2022-07-29T20:29:09;12.47;;;3.40;;
19002;SDS011;9634;51.040;13.794;2022-07-29T20:34:13;12.53;;;3.73;;
19002;SDS011;9634;51.040;13.794;2022-07-29T20:39:16;8.23;;;3.60;;
19002;SDS011;9634;51.040;13.794;2022-07-29T20:44:20;6.50;;;3.03;;
19002;SDS011;9634;51.040;13.794;2022-07-29T20:49:25;6.20;;;3.80;;
19002;SDS011;9634;51.040;13.794;2022-07-29T20:54:28;6.90;;;3.07;;
19002;SDS011;9634;51.040;13.794;2022-07-29T20:59:30;10.40;;;3.50;;
19002;SDS011;9634;51.040;13.794;2022-07-29T21:04:34;7.57;;;3.70;;
19002;SDS011;9634;51.040;13.794;2022-07-29T21:09:37;5.67;;;3.00;;
19002;SDS011;9634;51.040;13.794;2022-07-29T21:14:39;5.77;;;3.27;;
19002;SDS011;9634;51.040;13.794;2022-07-29T21:19:50;7.93;;;3.97;;
19002;SDS011;9634;51.040;13.794;2022-07-29T21:24:54;13.93;;;3.87;;
19002;SDS011;9634;51.040;13.794;2022-07-29T21:29:57;9.87;;;3.50;;
19002;SDS011;9634;51.040;13.794;2022-07-29T21:35:01;8.00;;;3.60;;
19002;SDS011;9634;51.040;13.794;2022-07-29T21:40:04;7.37;;;3.87;;
19002;SDS011;9634;51.040;13.794;2022-07-29T21:45:07;7.90;;;3.60;;
19002;SDS011;9634;51.040;13.794;2022-07-29T21:50:13;12.77;;;3.73;;
19002;SDS011;9634;51.040;13.794;2022-07-29T21:55:16;9.50;;;3.93;;
19002;SDS011;9634;51.040;13.794;2022-07-29T22:00:18;6.97;;;3.63;;
19002;SDS011;9634;51.040;13.794;2022-07-29T22:05:26;10.57;;;4.00;;
19002;SDS011;9634;51.040;13.794;2022-07-29T22:10:29;9.73;;;3.87;;
19002;SDS011;9634;51.040;13.794;2022-07-29T22:15:33;8.93;;;4.13;;
19002;SDS011;9634;51.040;13.794;2022-07-29T22:20:36;11.23;;;4.60;;
19002;SDS011;9634;51.040;13.794;2022-07-29T22:25:39;8.67;;;4.20;;
19002;SDS011;9634;51.040;13.794;2022-07-29T22:30:41;10.80;;;4.27;;
19002;SDS011;9634;51.040;13.794;2022-07-29T22:35:45;12.43;;;4.33;;
19002;SDS011;9634;51.040;13.794;2022-07-29T22:40:48;6.97;;;3.77;;
19002;SDS011;9634;51.040;13.794;2022-07-29T22:45:51;6.33;;;3.70;;
19002;SDS011;9634;51.040;13.794;2022-07-29T22:50:55;11.43;;;4.10;;
19002;SDS011;9634;51.040;13.794;2022-07-29T22:55:57;9.40;;;5.00;;
19002;SDS011;9634;51.040;13.794;2022-07-29T23:01:00;7.83;;;4.10;;
19002;SDS011;9634;51.040;13.794;2022-07-29T23:06:04;12.93;;;4.33;;
19002;SDS011;9634;51.040;13.794;2022-07-29T23:11:07;8.87;;;4.70;;
19002;SDS011;9634;51.040;13.794;2022-07-29T23:16:10;7.80;;;4.67;;
19002;SDS011;9634;51.040;13.794;2022-07-29T23:21:14;13.67;;;4.47;;
19002;SDS011;9634;51.040;13.794;2022-07-29T23:26:16;7.80;;;4.30;;
19002;SDS011;9634;51.040;13.794;2022-07-29T23:31:19;6.33;;;3.90;;
19002;SDS011;9634;51.040;13.794;2022-07-29T23:36:23;9.20;;;4.67;;
19002;SDS011;9634;51.040;13.794;2022-07-29T23:41:27;9.17;;;4.43;;
19002;SDS011;9634;51.040;13.794;2022-07-29T23:46:30;15.17;;;6.30;;
19002;SDS011;9634;51.040;13.794;2022-07-29T23:51:34;24.20;;;8.47;;
19002;SDS011;9634;51.040;13.794;2022-07-29T23:56:36;19.37;;;8.37;;
